Time;durP1;ratioP1;P1;durP2;ratioP2;P2;SDS_P1;SDS_P2;PMS_P1;PMS_P2;Temp;Humidity;BMP_temperature;BMP_pressure;BME280_temperature;BME280_humidity;BME280_pressure;Samples;Min_cycle;Max_cycle;Signal;HPM_P1;HPM_P2
2023/02/25 00:02:02;;;;;;;;;;;17.60;51.40;;;;;;10082893;28;971;-74
2023/02/25 00:06:57;;;;;;;;;;;17.60;51.40;;;;;;10083338;28;892;-74
2023/02/25 00:11:52;;;;;;;;;;;17.60;51.40;;;;;;10082851;28;947;-74
2023/02/25 00:16:48;;;;;;;;;;;17.60;51.30;;;;;;10081833;28;1906;-74
2023/02/25 00:21:43;;;;;;;;;;;17.50;51.40;;;;;;10082279;28;774;-74
2023/02/25 00:26:38;;;;;;;;;;;17.50;51.40;;;;;;10082108;28;954;-74
2023/02/25 00:31:34;;;;;;;;;;;17.50;51.40;;;;;;10082017;28;766;-74
2023/02/25 00:36:29;;;;;;;;;;;17.50;51.30;;;;;;10082018;28;1906;-74
2023/02/25 00:41:25;;;;;;;;;;;17.50;51.40;;;;;;10080892;28;1276;-74
2023/02/25 00:46:21;;;;;;;;;;;17.50;51.30;;;;;;10081518;28;841;-74
2023/02/25 00:51:16;;;;;;;;;;;17.50;51.30;;;;;;10081395;28;877;-74
2023/02/25 00:56:14;;;;;;;;;;;17.50;51.40;;;;;;10080315;28;1986;-74
2023/02/25 01:01:09;;;;;;;;;;;17.40;51.30;;;;;;10080996;28;910;-74
2023/02/25 01:06:05;;;;;;;;;;;17.50;51.40;;;;;;10080355;28;814;-74
2023/02/25 01:11:00;;;;;;;;;;;17.50;51.30;;;;;;10081440;28;774;-74
2023/02/25 01:15:55;;;;;;;;;;;17.50;51.30;;;;;;10080634;28;1962;-74
2023/02/25 01:20:51;;;;;;;;;;;17.50;51.20;;;;;;10080681;28;909;-74
2023/02/25 01:25:46;;;;;;;;;;;17.50;51.10;;;;;;10079828;28;846;-74
2023/02/25 01:30:41;;;;;;;;;;;17.50;51.10;;;;;;10080212;28;956;-74
2023/02/25 01:35:37;;;;;;;;;;;17.50;51.00;;;;;;10080005;28;1894;-74
2023/02/25 01:40:32;;;;;;;;;;;17.50;51.00;;;;;;10079694;28;944;-74
2023/02/25 01:45:28;;;;;;;;;;;17.50;50.90;;;;;;10080631;28;1109;-74
2023/02/25 01:50:23;;;;;;;;;;;17.50;51.00;;;;;;10079694;28;902;-74
2023/02/25 01:55:18;;;;;;;;;;;17.40;51.00;;;;;;10079056;28;1218;-74
2023/02/25 02:00:17;;;;;;;;;;;17.50;50.90;;;;;;10079439;28;1907;-74
2023/02/25 02:05:13;;;;;;;;;;;17.50;51.00;;;;;;10080107;28;920;-74
2023/02/25 02:10:08;;;;;;;;;;;17.40;51.00;;;;;;10084702;28;840;-74
2023/02/25 02:15:04;;;;;;;;;;;17.40;51.00;;;;;;10086129;28;1127;-74
2023/02/25 02:19:59;;;;;;;;;;;17.40;50.90;;;;;;10085959;28;1977;-74
2023/02/25 02:24:55;;;;;;;;;;;17.40;51.10;;;;;;10086448;28;871;-74
2023/02/25 02:29:50;;;;;;;;;;;17.40;51.10;;;;;;10085734;28;861;-74
2023/02/25 02:34:45;;;;;;;;;;;17.30;51.00;;;;;;10085577;28;871;-74
2023/02/25 02:39:44;;;;;;;;;;;17.30;51.10;;;;;;10085285;28;1907;-74
2023/02/25 02:44:39;;;;;;;;;;;17.30;51.10;;;;;;10084990;28;1385;-74
2023/02/25 02:49:35;;;;;;;;;;;17.30;51.10;;;;;;10085150;28;861;-74
2023/02/25 02:54:30;;;;;;;;;;;17.30;51.10;;;;;;10085530;28;923;-74
2023/02/25 02:59:25;;;;;;;;;;;17.30;51.20;;;;;;10085312;28;1911;-74
2023/02/25 03:04:21;;;;;;;;;;;17.30;51.20;;;;;;10084698;28;892;-75
2023/02/25 03:09:16;;;;;;;;;;;17.30;51.10;;;;;;10084878;28;941;-74
2023/02/25 03:14:12;;;;;;;;;;;17.30;51.10;;;;;;10084964;28;885;-75
2023/02/25 03:19:07;;;;;;;;;;;17.30;50.90;;;;;;10083800;28;1910;-74
2023/02/25 03:24:02;;;;;;;;;;;17.30;50.80;;;;;;10084674;28;785;-74
2023/02/25 03:28:58;;;;;;;;;;;17.30;50.80;;;;;;10084171;28;901;-74
2023/02/25 03:33:53;;;;;;;;;;;17.30;50.80;;;;;;10084522;28;869;-74
2023/02/25 03:38:48;;;;;;;;;;;17.40;50.80;;;;;;10083489;28;1915;-74
2023/02/25 03:43:44;;;;;;;;;;;17.40;50.80;;;;;;10083718;28;1186;-74
2023/02/25 03:48:39;;;;;;;;;;;17.40;50.80;;;;;;10083403;28;790;-74
2023/02/25 03:53:35;;;;;;;;;;;17.40;50.70;;;;;;10083253;28;775;-74
2023/02/25 03:58:30;;;;;;;;;;;17.40;50.70;;;;;;10082994;28;1907;-74
2023/02/25 04:03:25;;;;;;;;;;;17.40;50.70;;;;;;10083509;28;948;-74
2023/02/25 04:08:21;;;;;;;;;;;17.40;50.70;;;;;;10082289;28;876;-74
2023/02/25 04:13:19;;;;;;;;;;;17.40;50.60;;;;;;10083222;28;945;-74
2023/02/25 04:18:14;;;;;;;;;;;17.40;50.70;;;;;;10082335;28;1895;-74
2023/02/25 04:23:09;;;;;;;;;;;17.40;50.70;;;;;;10082330;28;890;-74
2023/02/25 04:28:05;;;;;;;;;;;17.40;50.60;;;;;;10082146;28;806;-74
2023/02/25 04:33:00;;;;;;;;;;;17.40;50.50;;;;;;10082498;28;814;-74
2023/02/25 04:37:56;;;;;;;;;;;17.40;50.60;;;;;;10081788;29;1964;-74
2023/02/25 04:42:51;;;;;;;;;;;17.50;50.50;;;;;;10081682;28;1749;-74
2023/02/25 04:47:46;;;;;;;;;;;17.50;50.50;;;;;;10081664;28;1536;-74
2023/02/25 04:52:42;;;;;;;;;;;17.50;50.60;;;;;;10082005;28;896;-74
2023/02/25 04:57:41;;;;;;;;;;;17.40;50.50;;;;;;10081107;28;1907;-74
2023/02/25 05:02:36;;;;;;;;;;;17.50;50.60;;;;;;10082105;28;880;-75
2023/02/25 05:07:31;;;;;;;;;;;17.50;50.60;;;;;;10080961;28;860;-74
2023/02/25 05:12:27;;;;;;;;;;;17.50;50.60;;;;;;10081686;28;922;-74
2023/02/25 05:17:22;;;;;;;;;;;17.50;50.40;;;;;;10095411;28;1962;-74
2023/02/25 05:22:17;;;;;;;;;;;17.50;50.30;;;;;;10079974;28;820;-74
2023/02/25 05:27:13;;;;;;;;;;;17.50;50.40;;;;;;10080508;28;856;-75
2023/02/25 05:32:08;;;;;;;;;;;17.60;50.40;;;;;;10080190;28;869;-74
2023/02/25 05:37:04;;;;;;;;;;;17.50;50.30;;;;;;10080745;28;1910;-74
2023/02/25 05:41:59;;;;;;;;;;;17.50;50.30;;;;;;10079455;28;1328;-74
2023/02/25 05:46:54;;;;;;;;;;;17.50;50.30;;;;;;10079337;28;929;-74
2023/02/25 05:51:50;;;;;;;;;;;17.50;50.40;;;;;;10079200;28;1055;-76
2023/02/25 05:56:45;;;;;;;;;;;17.50;50.30;;;;;;10079119;28;1970;-76
2023/02/25 06:01:40;;;;;;;;;;;17.50;50.30;;;;;;10079824;28;917;-74
2023/02/25 06:06:36;;;;;;;;;;;17.60;50.30;;;;;;10079422;28;873;-77
2023/02/25 06:11:31;;;;;;;;;;;17.60;50.20;;;;;;10079818;28;878;-77
2023/02/25 06:16:30;;;;;;;;;;;17.60;50.30;;;;;;10078547;28;1976;-77
2023/02/25 06:21:26;;;;;;;;;;;17.60;50.30;;;;;;10078988;28;898;-76
2023/02/25 06:26:21;;;;;;;;;;;17.60;50.20;;;;;;10078913;28;884;-76
2023/02/25 06:31:17;;;;;;;;;;;17.60;50.40;;;;;;10079157;28;901;-77
2023/02/25 06:36:12;;;;;;;;;;;17.60;50.30;;;;;;10079171;28;1958;-76
2023/02/25 06:41:08;;;;;;;;;;;17.60;50.30;;;;;;10078858;28;1278;-76
2023/02/25 06:46:03;;;;;;;;;;;17.60;50.30;;;;;;10079057;28;719;-77
2023/02/25 06:50:58;;;;;;;;;;;17.60;50.30;;;;;;10079191;28;826;-76
2023/02/25 06:55:54;;;;;;;;;;;17.70;50.30;;;;;;10081408;28;1906;-77
2023/02/25 07:00:49;;;;;;;;;;;17.60;50.30;;;;;;10084231;28;890;-76
2023/02/25 07:05:44;;;;;;;;;;;17.60;50.30;;;;;;10085230;28;869;-76
2023/02/25 07:10:40;;;;;;;;;;;17.60;50.30;;;;;;10084862;28;872;-76
2023/02/25 07:15:35;;;;;;;;;;;17.60;50.30;;;;;;10084921;28;838;-76
2023/02/25 07:20:31;;;;;;;;;;;17.60;50.50;;;;;;10084753;28;1898;-77
2023/02/25 07:25:26;;;;;;;;;;;17.60;50.40;;;;;;10084087;28;866;-78
2023/02/25 07:30:21;;;;;;;;;;;17.50;50.30;;;;;;10084765;28;862;-77
2023/02/25 07:35:17;;;;;;;;;;;17.60;50.50;;;;;;10084570;28;888;-74
2023/02/25 07:40:13;;;;;;;;;;;17.60;50.10;;;;;;10083374;28;1907;-78
2023/02/25 07:45:08;;;;;;;;;;;17.50;50.20;;;;;;10083398;28;1266;-76
2023/02/25 07:50:03;;;;;;;;;;;17.60;50.00;;;;;;10084102;28;837;-78
2023/02/25 07:54:59;;;;;;;;;;;17.60;49.80;;;;;;10083268;28;885;-78
2023/02/25 07:59:54;;;;;;;;;;;17.70;49.90;;;;;;10083012;28;1912;-78
2023/02/25 08:04:49;;;;;;;;;;;17.70;49.90;;;;;;10083184;28;873;-74
2023/02/25 08:09:45;;;;;;;;;;;17.80;49.80;;;;;;10082599;28;957;-75
2023/02/25 08:14:40;;;;;;;;;;;17.60;50.10;;;;;;10082041;28;952;-75
2023/02/25 08:19:36;;;;;;;;;;;17.70;49.70;;;;;;10082394;28;2009;-75
2023/02/25 08:24:31;;;;;;;;;;;17.70;49.80;;;;;;10082319;28;901;-75
2023/02/25 08:29:27;;;;;;;;;;;17.70;49.90;;;;;;10082148;28;878;-76
2023/02/25 08:34:22;;;;;;;;;;;17.80;49.90;;;;;;10082028;28;779;-75
2023/02/25 08:39:17;;;;;;;;;;;17.80;50.00;;;;;;10081799;28;1961;-75
2023/02/25 08:44:13;;;;;;;;;;;17.80;50.10;;;;;;10081179;28;1366;-74
2023/02/25 08:49:08;;;;;;;;;;;17.80;50.20;;;;;;10081028;28;893;-74
2023/02/25 08:54:03;;;;;;;;;;;17.90;50.40;;;;;;10081390;28;814;-75
2023/02/25 08:58:59;;;;;;;;;;;17.90;50.60;;;;;;10081686;28;1907;-74
2023/02/25 09:03:56;;;;;;;;;;;17.90;50.70;;;;;;10081128;28;786;-75
2023/02/25 09:08:52;;;;;;;;;;;17.90;50.60;;;;;;10081107;28;845;-75
2023/02/25 09:13:47;;;;;;;;;;;17.90;50.80;;;;;;10080124;28;1016;-77
2023/02/25 09:18:42;;;;;;;;;;;17.90;50.70;;;;;;10079729;28;1902;-77
2023/02/25 09:23:38;;;;;;;;;;;17.90;50.70;;;;;;10080569;28;776;-77
2023/02/25 09:28:33;;;;;;;;;;;17.90;50.90;;;;;;10080452;28;851;-80
2023/02/25 09:33:28;;;;;;;;;;;18.00;50.70;;;;;;10080279;28;804;-75
2023/02/25 09:38:24;;;;;;;;;;;17.90;50.70;;;;;;10080992;28;1906;-79
2023/02/25 09:43:19;;;;;;;;;;;17.70;50.80;;;;;;10080694;28;1105;-74
2023/02/25 09:48:15;;;;;;;;;;;17.60;51.10;;;;;;10079843;28;941;-77
2023/02/25 09:53:10;;;;;;;;;;;17.70;50.80;;;;;;10080357;28;798;-71
2023/02/25 09:58:06;;;;;;;;;;;17.90;50.70;;;;;;10080146;28;1902;-73
2023/02/25 10:03:01;;;;;;;;;;;17.90;50.70;;;;;;10080103;28;882;-77
2023/02/25 10:07:57;;;;;;;;;;;17.90;50.80;;;;;;10079380;28;858;-76
2023/02/25 10:12:53;;;;;;;;;;;17.90;50.70;;;;;;10079247;28;893;-76
2023/02/25 10:17:49;;;;;;;;;;;17.90;50.70;;;;;;10079792;28;1891;-75
2023/02/25 10:22:44;;;;;;;;;;;17.90;50.80;;;;;;10079038;28;875;-77
2023/02/25 10:27:39;;;;;;;;;;;18.00;50.60;;;;;;10078954;28;879;-79
2023/02/25 10:32:35;;;;;;;;;;;18.00;50.50;;;;;;10086008;28;818;-79
2023/02/25 10:37:30;;;;;;;;;;;18.00;50.60;;;;;;10086121;28;1952;-78
2023/02/25 10:42:25;;;;;;;;;;;17.90;50.20;;;;;;10085751;28;1226;-80
2023/02/25 10:47:21;;;;;;;;;;;17.90;49.70;;;;;;10085282;28;818;-79
2023/02/25 10:52:16;;;;;;;;;;;17.80;49.70;;;;;;10085774;28;797;-78
2023/02/25 10:57:12;;;;;;;;;;;17.80;49.60;;;;;;10084853;28;1903;-76
2023/02/25 11:02:07;;;;;;;;;;;17.70;49.80;;;;;;10084591;28;895;-76
2023/02/25 11:07:02;;;;;;;;;;;17.70;50.00;;;;;;10085246;28;854;-79
2023/02/25 11:11:58;;;;;;;;;;;17.60;50.40;;;;;;10085229;28;810;-79
2023/02/25 11:16:53;;;;;;;;;;;17.50;50.70;;;;;;10084387;28;1966;-79
2023/02/25 11:21:48;;;;;;;;;;;17.40;50.80;;;;;;10084874;28;810;-74
2023/02/25 11:26:44;;;;;;;;;;;17.40;50.90;;;;;;10084125;28;801;-81
2023/02/25 11:31:39;;;;;;;;;;;17.40;50.80;;;;;;10083907;28;954;-81
2023/02/25 11:36:35;;;;;;;;;;;17.40;50.80;;;;;;10083483;28;1894;-82
2023/02/25 11:41:31;;;;;;;;;;;17.40;50.80;;;;;;10082843;28;1141;-79
2023/02/25 11:46:26;;;;;;;;;;;17.40;50.80;;;;;;10083460;28;838;-79
2023/02/25 11:51:22;;;;;;;;;;;17.40;50.90;;;;;;10083328;28;878;-79
2023/02/25 11:56:17;;;;;;;;;;;17.40;50.70;;;;;;10083166;28;1968;-79
2023/02/25 12:01:12;;;;;;;;;;;17.40;50.80;;;;;;10083637;28;995;-79
2023/02/25 12:06:08;;;;;;;;;;;17.40;50.70;;;;;;10082894;28;784;-79
2023/02/25 12:11:03;;;;;;;;;;;17.40;50.70;;;;;;10083710;28;989;-79
2023/02/25 12:15:59;;;;;;;;;;;17.40;50.60;;;;;;10083034;28;1945;-80
2023/02/25 12:20:54;;;;;;;;;;;17.50;50.70;;;;;;10083084;28;845;-80
2023/02/25 12:25:50;;;;;;;;;;;17.40;50.60;;;;;;10082308;28;810;-80
2023/02/25 12:30:45;;;;;;;;;;;17.50;50.70;;;;;;10082778;28;802;-80
2023/02/25 12:35:40;;;;;;;;;;;17.50;50.70;;;;;;10081965;28;862;-80
2023/02/25 12:40:36;;;;;;;;;;;17.50;50.60;;;;;;10082046;28;1970;-80
2023/02/25 12:45:31;;;;;;;;;;;17.50;50.60;;;;;;10081505;28;1401;-80
2023/02/25 12:50:26;;;;;;;;;;;17.50;50.60;;;;;;10081021;28;830;-79
2023/02/25 12:55:22;;;;;;;;;;;17.60;50.50;;;;;;10081381;28;794;-79
2023/02/25 13:00:17;;;;;;;;;;;17.50;50.50;;;;;;10081435;28;1976;-80
2023/02/25 13:05:13;;;;;;;;;;;17.50;50.50;;;;;;10081905;28;847;-80
2023/02/25 13:10:08;;;;;;;;;;;17.60;50.40;;;;;;10081078;28;756;-80
2023/02/25 13:15:04;;;;;;;;;;;17.60;50.60;;;;;;10082204;28;874;-83
2023/02/25 13:19:59;;;;;;;;;;;17.70;50.40;;;;;;10081585;28;1907;-83
2023/02/25 13:24:55;;;;;;;;;;;17.80;50.20;;;;;;10079972;28;870;-77
2023/02/25 13:29:50;;;;;;;;;;;17.70;50.30;;;;;;10080965;28;810;-76
2023/02/25 13:34:45;;;;;;;;;;;17.90;50.10;;;;;;10080337;28;794;-76
2023/02/25 13:39:41;;;;;;;;;;;18.00;49.60;;;;;;10080690;28;1910;-76
2023/02/25 13:44:38;;;;;;;;;;;18.00;49.70;;;;;;10080369;28;1141;-77
2023/02/25 13:49:33;;;;;;;;;;;18.20;49.40;;;;;;10079979;28;802;-76
2023/02/25 13:54:28;;;;;;;;;;;18.30;49.30;;;;;;10079755;28;936;-76
2023/02/25 13:59:24;;;;;;;;;;;18.40;49.30;;;;;;10079266;28;1918;-76
2023/02/25 14:04:19;;;;;;;;;;;18.50;49.20;;;;;;10083933;28;949;-76
2023/02/25 14:09:14;;;;;;;;;;;18.50;49.40;;;;;;10092374;28;914;-75
2023/02/25 14:14:10;;;;;;;;;;;18.40;49.50;;;;;;10092892;28;759;-75
2023/02/25 14:19:05;;;;;;;;;;;18.30;49.60;;;;;;10092110;28;1963;-77
2023/02/25 14:24:01;;;;;;;;;;;18.10;49.90;;;;;;10092275;28;849;-77
2023/02/25 14:28:56;;;;;;;;;;;18.00;50.10;;;;;;10092204;28;1080;-72
2023/02/25 14:33:51;;;;;;;;;;;18.10;50.00;;;;;;10092456;28;800;-72
2023/02/25 14:38:47;;;;;;;;;;;18.20;49.80;;;;;;10092213;28;1958;-72
2023/02/25 14:43:42;;;;;;;;;;;18.30;49.50;;;;;;10091965;28;1134;-73
2023/02/25 14:48:38;;;;;;;;;;;18.30;49.60;;;;;;10091455;29;976;-72
2023/02/25 14:53:33;;;;;;;;;;;18.30;49.50;;;;;;10091340;28;815;-72
2023/02/25 14:58:29;;;;;;;;;;;18.30;49.60;;;;;;10091777;28;1974;-72
2023/02/25 15:03:24;;;;;;;;;;;18.30;49.60;;;;;;10091104;28;937;-72
2023/02/25 15:08:19;;;;;;;;;;;18.20;49.60;;;;;;10091053;28;799;-72
2023/02/25 15:13:16;;;;;;;;;;;18.20;49.70;;;;;;10091944;28;2000;-72
2023/02/25 15:18:11;;;;;;;;;;;18.40;49.50;;;;;;10084677;28;1919;-72
2023/02/25 15:23:07;;;;;;;;;;;18.50;49.10;;;;;;10085473;28;904;-72
2023/02/25 15:28:02;;;;;;;;;;;18.60;49.20;;;;;;10083946;28;747;-71
2023/02/25 15:32:58;;;;;;;;;;;18.70;49.30;;;;;;10084236;28;861;-70
2023/02/25 15:37:53;;;;;;;;;;;18.80;49.00;;;;;;10083393;28;1910;-72
2023/02/25 15:42:48;;;;;;;;;;;18.90;49.20;;;;;;10083735;28;1211;-72
2023/02/25 15:47:44;;;;;;;;;;;18.90;49.30;;;;;;10083243;29;946;-72
2023/02/25 15:52:40;;;;;;;;;;;18.80;49.40;;;;;;10083623;28;884;-72
2023/02/25 15:57:35;;;;;;;;;;;18.70;49.30;;;;;;10082848;28;1974;-72
2023/02/25 16:02:32;;;;;;;;;;;18.60;49.50;;;;;;10082806;28;866;-72
2023/02/25 16:07:27;;;;;;;;;;;18.50;49.50;;;;;;10082851;28;878;-72
2023/02/25 16:12:23;;;;;;;;;;;18.60;49.30;;;;;;10082820;28;767;-72
2023/02/25 16:17:18;;;;;;;;;;;18.50;49.40;;;;;;10082587;28;1964;-72
2023/02/25 16:22:14;;;;;;;;;;;18.50;49.60;;;;;;10082494;28;767;-72
2023/02/25 16:27:09;;;;;;;;;;;18.50;49.50;;;;;;10081381;28;838;-72
2023/02/25 16:32:04;;;;;;;;;;;18.40;49.50;;;;;;10082773;28;869;-72
2023/02/25 16:37:00;;;;;;;;;;;18.40;49.50;;;;;;10082608;28;1915;-72
2023/02/25 16:41:56;;;;;;;;;;;18.30;49.50;;;;;;10082217;28;1374;-72
2023/02/25 16:46:53;;;;;;;;;;;18.30;49.40;;;;;;10083003;28;878;-72
2023/02/25 16:51:51;;;;;;;;;;;18.30;49.50;;;;;;10081637;28;912;-72
2023/02/25 16:56:46;;;;;;;;;;;18.30;49.60;;;;;;10081412;28;1974;-75
2023/02/25 17:01:42;;;;;;;;;;;18.30;49.30;;;;;;10081237;28;956;-72
2023/02/25 17:06:37;;;;;;;;;;;18.30;49.30;;;;;;10080969;28;988;-72
2023/02/25 17:11:33;;;;;;;;;;;18.40;49.30;;;;;;10080946;28;778;-72
2023/02/25 17:16:28;;;;;;;;;;;18.30;49.20;;;;;;10081368;28;1964;-72
2023/02/25 17:21:23;;;;;;;;;;;18.30;49.20;;;;;;10081313;28;837;-72
2023/02/25 17:26:19;;;;;;;;;;;18.40;49.20;;;;;;10080610;28;826;-72
2023/02/25 17:31:15;;;;;;;;;;;18.40;49.20;;;;;;10081388;28;881;-72
2023/02/25 17:36:10;;;;;;;;;;;18.30;49.20;;;;;;10080209;28;1967;-72
2023/02/25 17:41:06;;;;;;;;;;;18.40;49.20;;;;;;10079208;28;1374;-72
2023/02/25 17:46:01;;;;;;;;;;;18.40;49.20;;;;;;10080080;28;740;-72
2023/02/25 17:50:56;;;;;;;;;;;18.30;49.20;;;;;;10079314;28;846;-72
2023/02/25 17:55:52;;;;;;;;;;;18.40;49.20;;;;;;10079378;28;956;-72
2023/02/25 18:00:47;;;;;;;;;;;18.40;49.20;;;;;;10079568;28;1903;-73
2023/02/25 18:05:42;;;;;;;;;;;18.40;49.30;;;;;;10078964;28;917;-73
2023/02/25 18:10:38;;;;;;;;;;;18.40;49.50;;;;;;10079638;28;973;-74
2023/02/25 18:15:33;;;;;;;;;;;18.40;49.60;;;;;;10079330;28;942;-74
2023/02/25 18:20:29;;;;;;;;;;;18.40;49.60;;;;;;10079681;28;1969;-74
2023/02/25 18:25:24;;;;;;;;;;;18.40;49.80;;;;;;10079766;28;865;-73
2023/02/25 18:30:19;;;;;;;;;;;18.40;49.80;;;;;;10079531;28;893;-74
2023/02/25 18:35:15;;;;;;;;;;;18.40;49.70;;;;;;10079680;28;841;-74
2023/02/25 18:40:10;;;;;;;;;;;18.40;49.60;;;;;;10079243;28;1969;-74
2023/02/25 18:45:05;;;;;;;;;;;18.40;49.60;;;;;;10078524;28;1420;-74
2023/02/25 18:50:01;;;;;;;;;;;18.40;49.60;;;;;;10080665;28;822;-73
2023/02/25 18:54:56;;;;;;;;;;;18.40;49.60;;;;;;10085195;28;873;-73
2023/02/25 18:59:52;;;;;;;;;;;18.40;49.50;;;;;;10084434;28;1915;-74
2023/02/25 19:04:47;;;;;;;;;;;18.40;49.50;;;;;;10085552;28;841;-74
2023/02/25 19:09:43;;;;;;;;;;;18.40;49.40;;;;;;10084684;28;890;-73
2023/02/25 19:14:38;;;;;;;;;;;18.40;49.40;;;;;;10084612;28;871;-74
2023/02/25 19:19:33;;;;;;;;;;;18.40;49.30;;;;;;10084378;28;1906;-73
2023/02/25 19:24:29;;;;;;;;;;;18.40;49.20;;;;;;10083692;28;1077;-73
2023/02/25 19:29:24;;;;;;;;;;;18.40;49.20;;;;;;10084718;28;888;-73
2023/02/25 19:34:22;;;;;;;;;;;18.40;49.10;;;;;;10084746;28;818;-70
2023/02/25 19:39:17;;;;;;;;;;;18.40;49.10;;;;;;10084273;28;1907;-74
2023/02/25 19:44:12;;;;;;;;;;;18.40;48.90;;;;;;10084523;28;1157;-74
2023/02/25 19:49:08;;;;;;;;;;;18.30;48.80;;;;;;10084337;28;960;-74
2023/02/25 19:54:03;;;;;;;;;;;18.40;48.70;;;;;;10084582;28;869;-74
2023/02/25 19:58:58;;;;;;;;;;;18.40;48.60;;;;;;10083403;28;1918;-74
2023/02/25 20:03:54;;;;;;;;;;;18.30;48.60;;;;;;10082408;28;848;-74
2023/02/25 20:08:51;;;;;;;;;;;18.30;49.10;;;;;;10083524;28;893;-74
2023/02/25 20:13:47;;;;;;;;;;;18.30;48.50;;;;;;10083351;28;881;-73
2023/02/25 20:18:42;;;;;;;;;;;18.30;48.50;;;;;;10082569;28;1903;-74
2023/02/25 20:23:38;;;;;;;;;;;18.30;48.70;;;;;;10082503;28;786;-74
2023/02/25 20:28:33;;;;;;;;;;;18.30;48.60;;;;;;10081801;28;1059;-74
2023/02/25 20:33:28;;;;;;;;;;;18.20;48.60;;;;;;10082806;28;812;-74
2023/02/25 20:38:24;;;;;;;;;;;18.20;48.50;;;;;;10082619;28;1911;-74
2023/02/25 20:43:19;;;;;;;;;;;18.20;48.50;;;;;;10082025;28;1146;-74
2023/02/25 20:48:15;;;;;;;;;;;18.20;48.50;;;;;;10081787;28;790;-74
2023/02/25 20:53:10;;;;;;;;;;;18.20;48.80;;;;;;10081651;28;787;-74
2023/02/25 20:58:05;;;;;;;;;;;18.10;48.90;;;;;;10081418;28;1911;-74
2023/02/25 21:03:01;;;;;;;;;;;18.10;49.10;;;;;;10081846;28;849;-74
2023/02/25 21:07:56;;;;;;;;;;;18.10;48.90;;;;;;10081146;28;794;-74
2023/02/25 21:12:51;;;;;;;;;;;18.10;48.90;;;;;;10079433;28;1004;-74
2023/02/25 21:17:47;;;;;;;;;;;18.10;48.90;;;;;;10080207;28;1960;-74
2023/02/25 21:22:42;;;;;;;;;;;18.10;48.80;;;;;;10080801;28;781;-73
2023/02/25 21:27:37;;;;;;;;;;;18.00;48.80;;;;;;10081195;28;896;-74
2023/02/25 21:32:33;;;;;;;;;;;18.00;49.20;;;;;;10080501;28;854;-76
2023/02/25 21:37:28;;;;;;;;;;;18.00;48.90;;;;;;10080876;28;1958;-73
2023/02/25 21:42:24;;;;;;;;;;;17.90;49.20;;;;;;10079963;28;1584;-73
2023/02/25 21:47:19;;;;;;;;;;;17.90;49.20;;;;;;10080071;28;798;-73
2023/02/25 21:52:15;;;;;;;;;;;17.90;49.20;;;;;;10079954;28;901;-73
2023/02/25 21:57:10;;;;;;;;;;;17.90;49.20;;;;;;10079817;28;1918;-73
2023/02/25 22:02:06;;;;;;;;;;;17.90;49.30;;;;;;10079705;28;901;-73
2023/02/25 22:07:01;;;;;;;;;;;17.80;49.40;;;;;;10079573;28;799;-73
2023/02/25 22:11:56;;;;;;;;;;;17.80;49.30;;;;;;10079417;28;780;-73
2023/02/25 22:16:52;;;;;;;;;;;17.90;49.30;;;;;;10079329;28;1903;-73
2023/02/25 22:21:47;;;;;;;;;;;17.80;49.30;;;;;;10079291;28;881;-73
2023/02/25 22:26:44;;;;;;;;;;;17.80;49.30;;;;;;10083090;28;1061;-73
2023/02/25 22:31:39;;;;;;;;;;;17.80;49.30;;;;;;10085942;28;769;-73
2023/02/25 22:36:35;;;;;;;;;;;17.80;49.40;;;;;;10085719;28;1960;-73
2023/02/25 22:41:30;;;;;;;;;;;17.80;49.40;;;;;;10085953;28;1101;-73
2023/02/25 22:46:26;;;;;;;;;;;17.80;49.40;;;;;;10084923;28;904;-73
2023/02/25 22:51:21;;;;;;;;;;;17.80;49.50;;;;;;10085853;28;881;-73
2023/02/25 22:56:17;;;;;;;;;;;17.80;49.50;;;;;;10085289;28;802;-73
2023/02/25 23:01:12;;;;;;;;;;;17.80;49.40;;;;;;10084363;28;1907;-73
2023/02/25 23:06:08;;;;;;;;;;;17.80;49.50;;;;;;10084850;28;944;-73
2023/02/25 23:11:03;;;;;;;;;;;17.80;49.60;;;;;;10084148;28;1170;-73
2023/02/25 23:15:59;;;;;;;;;;;17.70;49.60;;;;;;10084068;28;838;-73
2023/02/25 23:20:55;;;;;;;;;;;17.70;49.60;;;;;;10084400;28;1963;-73
2023/02/25 23:25:51;;;;;;;;;;;17.70;49.60;;;;;;10084904;28;804;-73
2023/02/25 23:30:46;;;;;;;;;;;17.70;49.60;;;;;;10084146;28;922;-73
2023/02/25 23:35:42;;;;;;;;;;;17.80;49.60;;;;;;10083204;28;794;-73
2023/02/25 23:40:37;;;;;;;;;;;17.70;49.50;;;;;;10083573;28;1903;-73
2023/02/25 23:45:32;;;;;;;;;;;17.70;49.50;;;;;;10083209;28;1477;-73
2023/02/25 23:50:28;;;;;;;;;;;17.80;49.50;;;;;;10083552;28;807;-73
2023/02/25 23:55:24;;;;;;;;;;;17.70;49.40;;;;;;10084639;28;879;-73
